createdAt,value
2022-12-02T00:01:28.526Z,24.42
2022-12-02T00:03:56.754Z,13.93
2022-12-02T00:06:29.921Z,88.13
2022-12-02T00:09:03.214Z,67.67
2022-12-02T00:11:31.487Z,56.70
2022-12-02T00:14:02.846Z,58.58
2022-12-02T00:16:29.905Z,84.82
2022-12-02T00:18:57.178Z,47.45
2022-12-02T00:21:24.249Z,59.85
2022-12-02T00:23:51.134Z,77.97
2022-12-02T00:26:18.061Z,63.50
2022-12-02T00:28:45.729Z,24.00
2022-12-02T00:31:12.864Z,17.85
2022-12-02T00:33:39.947Z,21.13
2022-12-02T00:36:07.121Z,69.07
2022-12-02T00:38:33.925Z,115.22
2022-12-02T00:41:00.737Z,144.07
2022-12-02T00:43:46.908Z,148.27
2022-12-02T00:46:31.873Z,127.70
2022-12-02T00:48:59.746Z,132.40
2022-12-02T00:51:30.104Z,78.38
2022-12-02T00:53:57.017Z,70.90
2022-12-02T00:56:23.946Z,80.50
2022-12-02T00:58:51.775Z,84.18
2022-12-02T01:01:19.157Z,57.20
2022-12-02T01:03:46.441Z,188.47
2022-12-02T01:06:14.077Z,153.03
2022-12-02T01:08:41.371Z,155.90
2022-12-02T01:11:08.632Z,158.27
2022-12-02T01:13:36.461Z,164.88
2022-12-02T01:16:04.849Z,120.13
2022-12-02T01:18:32.269Z,142.15
2022-12-02T01:20:59.112Z,196.70
2022-12-02T01:23:25.981Z,200.15
2022-12-02T01:25:53.817Z,208.85
2022-12-02T01:28:20.641Z,202.07
2022-12-02T01:30:47.845Z,195.90
2022-12-02T01:33:14.920Z,134.13
2022-12-02T01:35:41.845Z,293.60
2022-12-02T01:38:09.539Z,188.60
2022-12-02T01:40:37.177Z,148.63
2022-12-02T01:43:04.058Z,206.60
2022-12-02T01:45:31.531Z,164.00
2022-12-02T01:48:03.513Z,260.50
2022-12-02T01:50:32.561Z,109.10
2022-12-02T01:53:00.870Z,89.93
2022-12-02T01:55:29.298Z,120.67
2022-12-02T01:57:58.475Z,163.87
2022-12-02T02:00:26.390Z,121.32
2022-12-02T02:02:53.268Z,159.02
2022-12-02T02:05:27.390Z,136.98
2022-12-02T02:07:57.851Z,124.45
2022-12-02T02:10:27.538Z,152.73
2022-12-02T02:12:55.355Z,151.95
2022-12-02T02:15:23.253Z,142.90
2022-12-02T02:17:51.688Z,139.93
2022-12-02T02:20:21.643Z,151.98
2022-12-02T02:22:51.253Z,148.57
2022-12-02T02:25:20.538Z,167.27
2022-12-02T02:27:57.129Z,188.07
2022-12-02T02:30:27.045Z,190.85
2022-12-02T02:32:54.256Z,241.55
2022-12-02T02:35:21.765Z,233.23
2022-12-02T02:37:50.645Z,176.70
2022-12-02T02:40:18.784Z,203.05
2022-12-02T02:42:50.033Z,200.10
2022-12-02T02:45:18.198Z,139.03
2022-12-02T02:47:45.925Z,132.27
2022-12-02T02:50:13.350Z,20.45
2022-12-02T02:52:40.539Z,70.57
2022-12-02T02:55:14.773Z,131.90
2022-12-02T02:57:41.590Z,13.48
2022-12-02T03:00:09.202Z,14.85
2022-12-02T03:02:36.414Z,16.23
2022-12-02T03:05:05.723Z,82.03
2022-12-02T03:07:33.710Z,112.70
2022-12-02T03:10:02.523Z,45.10
2022-12-02T03:12:30.677Z,66.20
2022-12-02T03:14:58.639Z,8.70
2022-12-02T03:17:25.638Z,69.77
2022-12-02T03:19:52.691Z,158.13
2022-12-02T03:22:20.779Z,146.55
2022-12-02T03:24:47.630Z,147.82
2022-12-02T03:27:15.217Z,148.10
2022-12-02T03:29:42.924Z,159.18
2022-12-02T03:32:10.863Z,76.18
2022-12-02T03:34:39.320Z,198.95
2022-12-02T03:37:06.068Z,236.98
2022-12-02T03:39:32.984Z,285.88
2022-12-02T03:41:59.819Z,202.80
2022-12-02T03:44:26.978Z,166.23
2022-12-02T03:46:53.933Z,226.63
2022-12-02T03:49:20.880Z,132.17
2022-12-02T03:51:48.542Z,135.45
2022-12-02T03:54:16.111Z,145.52
2022-12-02T03:56:43.428Z,212.97
2022-12-02T03:59:11.416Z,190.00
2022-12-02T04:01:38.261Z,234.63
2022-12-02T04:04:05.142Z,202.00
2022-12-02T04:06:32.030Z,207.80
2022-12-02T04:08:59.092Z,169.88
2022-12-02T04:11:26.843Z,181.13
2022-12-02T04:13:53.665Z,212.82
2022-12-02T04:16:20.482Z,201.55
2022-12-02T04:18:48.072Z,191.75
2022-12-02T04:21:14.819Z,9.23
2022-12-02T04:23:41.753Z,8.05
2022-12-02T04:26:08.576Z,8.65
2022-12-02T04:28:35.467Z,8.32
2022-12-02T04:31:02.451Z,34.63
2022-12-02T04:33:29.382Z,23.88
2022-12-02T04:35:56.234Z,20.17
2022-12-02T04:38:24.280Z,33.85
2022-12-02T04:40:51.151Z,9.40
2022-12-02T04:43:17.956Z,8.68
2022-12-02T04:45:44.714Z,9.20
2022-12-02T04:48:11.610Z,11.25
2022-12-02T04:50:38.506Z,9.45
2022-12-02T04:53:05.387Z,12.43
2022-12-02T04:55:33.112Z,12.00
2022-12-02T04:57:59.985Z,8.85
2022-12-02T05:00:26.682Z,9.65
2022-12-02T05:02:53.629Z,10.32
2022-12-02T05:05:20.455Z,8.98
2022-12-02T05:07:47.314Z,10.45
2022-12-02T05:10:14.622Z,12.07
2022-12-02T05:12:42.408Z,11.67
2022-12-02T05:15:09.518Z,10.65
2022-12-02T05:17:41.752Z,10.77
2022-12-02T05:20:09.634Z,14.00
2022-12-02T05:22:36.439Z,12.27
2022-12-02T05:25:03.719Z,16.40
2022-12-02T05:27:35.327Z,14.02
2022-12-02T05:30:07.505Z,13.43
2022-12-02T05:32:34.561Z,18.33
2022-12-02T05:35:01.308Z,16.52
2022-12-02T05:37:28.003Z,14.82
2022-12-02T05:39:55.972Z,13.18
2022-12-02T05:42:22.783Z,13.65
2022-12-02T05:44:49.621Z,15.20
2022-12-02T05:47:18.103Z,13.70
2022-12-02T05:49:46.956Z,13.25
2022-12-02T05:52:23.213Z,29.67
2022-12-02T05:54:56.156Z,23.87
2022-12-02T05:57:29.878Z,16.92
2022-12-02T06:00:23.342Z,13.80
2022-12-02T06:02:56.920Z,29.55
2022-12-02T06:05:24.798Z,31.77
2022-12-02T06:08:01.335Z,28.75
2022-12-02T06:10:31.571Z,36.75
2022-12-02T06:13:10.239Z,42.55
2022-12-02T06:15:38.309Z,34.15
2022-12-02T06:18:14.575Z,35.17
2022-12-02T06:20:43.348Z,41.05
2022-12-02T06:23:16.545Z,36.42
2022-12-02T06:25:44.497Z,102.45
2022-12-02T06:28:36.166Z,156.93
2022-12-02T06:31:18.332Z,715.15
2022-12-02T06:33:48.607Z,9.43
2022-12-02T06:36:25.655Z,19.13
2022-12-02T06:38:57.458Z,15.60
2022-12-02T06:41:24.217Z,30.97
2022-12-02T06:44:10.057Z,12.32
2022-12-02T06:46:37.878Z,10.30
2022-12-02T06:49:20.944Z,73.18
2022-12-02T06:51:55.467Z,8.90
2022-12-02T06:54:26.612Z,9.33
2022-12-02T06:56:53.802Z,10.65
2022-12-02T06:59:23.243Z,56.75
2022-12-02T07:01:58.262Z,30.95
2022-12-02T07:04:49.934Z,36.60
2022-12-02T07:07:23.634Z,21.88
2022-12-02T07:10:00.439Z,18.95
2022-12-02T07:12:43.814Z,143.97
2022-12-02T07:15:30.118Z,104.20
2022-12-02T07:18:00.878Z,54.70
2022-12-02T07:20:34.622Z,37.10
2022-12-02T07:23:19.952Z,20.08
2022-12-02T07:25:57.810Z,45.47
2022-12-02T07:28:39.820Z,36.33
2022-12-02T07:31:10.662Z,29.90
2022-12-02T07:33:39.889Z,33.92
2022-12-02T07:36:07.218Z,34.72
2022-12-02T07:39:04.796Z,32.63
2022-12-02T07:41:21.241Z,21.13
2022-12-02T07:43:48.036Z,10.23
2022-12-02T07:46:14.897Z,10.40
2022-12-02T07:48:41.836Z,10.88
2022-12-02T07:51:08.666Z,8.75
2022-12-02T07:53:35.404Z,11.25
2022-12-02T07:56:02.161Z,10.77
2022-12-02T07:58:48.209Z,14.98
2022-12-02T08:01:19.362Z,11.93
2022-12-02T08:03:46.750Z,43.70
2022-12-02T08:06:13.583Z,37.65
2022-12-02T08:08:40.325Z,44.13
2022-12-02T08:11:07.122Z,55.47
2022-12-02T08:13:33.921Z,34.08
2022-12-02T08:16:00.765Z,37.58
2022-12-02T08:18:27.606Z,60.88
2022-12-02T08:20:54.443Z,51.43
2022-12-02T08:23:21.283Z,65.07
2022-12-02T08:25:48.061Z,69.90
2022-12-02T08:28:14.903Z,82.05
2022-12-02T08:30:41.860Z,117.47
2022-12-02T08:33:08.866Z,120.97
2022-12-02T08:35:35.714Z,98.13
2022-12-02T08:38:02.492Z,110.90
2022-12-02T08:40:29.307Z,120.80
2022-12-02T08:42:56.419Z,143.63
2022-12-02T08:45:23.393Z,126.17
2022-12-02T08:47:50.261Z,137.63
2022-12-02T08:50:17.227Z,136.10
2022-12-02T08:52:43.973Z,85.68
2022-12-02T08:55:10.942Z,149.33
2022-12-02T08:57:37.782Z,129.75
2022-12-02T09:00:09.070Z,137.80
2022-12-02T09:02:36.339Z,120.03
2022-12-02T09:05:03.779Z,155.77
2022-12-02T09:07:30.568Z,88.10
2022-12-02T09:09:58.535Z,137.85
2022-12-02T09:12:28.226Z,185.25
2022-12-02T09:14:54.982Z,179.90
2022-12-02T09:17:21.829Z,158.93
2022-12-02T09:19:48.557Z,185.60
2022-12-02T09:22:15.464Z,208.50
2022-12-02T09:24:42.273Z,203.13
2022-12-02T09:27:09.129Z,204.87
2022-12-02T09:29:35.952Z,93.15
2022-12-02T09:32:02.846Z,92.70
2022-12-02T09:34:29.606Z,142.32
2022-12-02T09:36:56.390Z,166.63
2022-12-02T09:39:24.563Z,131.40
2022-12-02T09:41:51.490Z,124.43
2022-12-02T09:44:18.321Z,157.88
2022-12-02T09:46:45.245Z,132.40
2022-12-02T09:49:12.144Z,124.88
2022-12-02T09:51:38.888Z,134.63
2022-12-02T09:54:05.679Z,161.20
2022-12-02T09:56:32.572Z,134.10
2022-12-02T09:58:59.258Z,103.63
2022-12-02T10:01:27.369Z,89.97
2022-12-02T10:03:55.496Z,33.75
2022-12-02T10:06:29.572Z,33.75
2022-12-02T10:08:58.037Z,49.83
2022-12-02T10:11:27.915Z,51.08
2022-12-02T10:13:56.600Z,52.63
2022-12-02T10:16:23.910Z,86.63
2022-12-02T10:18:50.732Z,97.70
2022-12-02T10:21:17.563Z,110.53
2022-12-02T10:24:07.808Z,128.55
2022-12-02T10:26:46.935Z,160.88
2022-12-02T10:29:34.761Z,168.15
2022-12-02T10:32:03.624Z,169.38
2022-12-02T10:34:33.212Z,195.05
2022-12-02T10:37:18.041Z,231.90
2022-12-02T10:39:44.786Z,192.73
2022-12-02T10:42:20.771Z,186.55
2022-12-02T10:45:08.223Z,177.75
2022-12-02T10:47:34.997Z,180.85
2022-12-02T10:50:01.921Z,174.38
2022-12-02T10:52:28.687Z,176.83
2022-12-02T10:54:58.717Z,187.35
2022-12-02T10:57:29.287Z,207.60
2022-12-02T10:59:58.867Z,167.13
2022-12-02T11:02:38.426Z,142.65
2022-12-02T11:05:18.779Z,142.55
2022-12-02T11:07:56.642Z,195.07
2022-12-02T11:10:27.054Z,241.10
2022-12-02T11:12:54.450Z,234.55
2022-12-02T11:15:34.449Z,264.65
2022-12-02T11:18:02.233Z,299.23
2022-12-02T11:20:38.454Z,301.33
2022-12-02T11:23:22.332Z,300.52
2022-12-02T11:25:51.334Z,305.13
2022-12-02T11:28:18.013Z,305.40
2022-12-02T11:30:46.210Z,281.60
2022-12-02T11:33:53.034Z,212.73
2022-12-02T11:36:26.302Z,142.85
2022-12-02T11:38:53.077Z,169.00
2022-12-02T11:41:19.797Z,232.25
2022-12-02T11:43:46.513Z,123.72
2022-12-02T11:46:18.661Z,251.57
2022-12-02T11:48:55.163Z,244.27
2022-12-02T11:51:41.418Z,111.37
2022-12-02T11:54:14.296Z,46.65
2022-12-02T11:56:43.117Z,59.67
2022-12-02T11:59:29.476Z,176.50
2022-12-02T12:02:20.554Z,163.18
2022-12-02T12:05:07.616Z,48.47
2022-12-02T12:07:49.100Z,132.38
2022-12-02T12:10:26.096Z,154.00
2022-12-02T12:13:12.970Z,163.10
2022-12-02T12:15:57.909Z,189.15
2022-12-02T12:18:47.384Z,47.88
2022-12-02T12:21:41.841Z,46.58
2022-12-02T12:24:19.855Z,46.17
2022-12-02T12:26:56.755Z,82.07
2022-12-02T12:29:26.569Z,167.07
2022-12-02T12:31:53.495Z,151.40
2022-12-02T12:34:20.325Z,191.13
2022-12-02T12:36:47.465Z,63.72
2022-12-02T12:39:16.147Z,26.80
2022-12-02T12:42:00.606Z,21.67
2022-12-02T12:44:31.163Z,26.60
2022-12-02T12:47:05.983Z,25.17
2022-12-02T12:49:34.314Z,31.83
2022-12-02T12:52:01.835Z,33.88
2022-12-02T12:54:28.845Z,41.67
2022-12-02T12:56:55.717Z,38.53
2022-12-02T12:59:22.617Z,24.73
2022-12-02T13:01:49.554Z,48.83
2022-12-02T13:04:16.559Z,62.33
2022-12-02T13:06:43.705Z,89.15
2022-12-02T13:09:14.250Z,101.50
2022-12-02T13:11:42.021Z,100.60
2022-12-02T13:14:09.021Z,136.85
2022-12-02T13:16:35.976Z,142.55
2022-12-02T13:19:03.144Z,214.80
2022-12-02T13:21:30.137Z,276.45
2022-12-02T13:23:58.920Z,238.25
2022-12-02T13:26:25.807Z,197.40
2022-12-02T13:28:53.500Z,205.38
2022-12-02T13:31:21.170Z,199.05
2022-12-02T13:33:48.054Z,213.68
2022-12-02T13:36:15.984Z,222.50
2022-12-02T13:38:43.810Z,267.02
2022-12-02T13:41:11.599Z,257.05
2022-12-02T13:43:38.435Z,258.48
2022-12-02T13:46:05.328Z,277.63
2022-12-02T13:48:32.637Z,274.40
2022-12-02T13:51:02.435Z,297.08
2022-12-02T13:53:29.517Z,243.37
2022-12-02T13:55:56.341Z,215.88
2022-12-02T13:58:23.138Z,237.43
2022-12-02T14:00:50.008Z,241.23
2022-12-02T14:03:16.883Z,233.73
2022-12-02T14:05:43.587Z,247.23
2022-12-02T14:08:10.400Z,245.57
2022-12-02T14:10:39.278Z,234.95
2022-12-02T14:13:13.382Z,241.93
2022-12-02T14:15:43.977Z,243.67
2022-12-02T14:18:10.889Z,271.58
2022-12-02T14:20:37.678Z,262.92
2022-12-02T14:23:04.724Z,315.50
2022-12-02T14:25:32.538Z,286.23
2022-12-02T14:28:00.343Z,292.27
2022-12-02T14:30:27.218Z,194.65
2022-12-02T14:32:54.204Z,169.57
2022-12-02T14:35:21.081Z,167.50
2022-12-02T14:37:47.807Z,195.55
2022-12-02T14:40:15.528Z,179.90
2022-12-02T14:42:42.274Z,179.02
2022-12-02T14:45:10.142Z,184.45
2022-12-02T14:47:36.932Z,192.77
2022-12-02T14:50:04.047Z,190.30
2022-12-02T14:52:30.830Z,196.45
2022-12-02T14:54:58.636Z,194.13
2022-12-02T14:57:25.462Z,236.73
2022-12-02T14:59:52.211Z,226.50
2022-12-02T15:02:18.946Z,233.20
2022-12-02T15:04:45.917Z,250.65
2022-12-02T15:07:12.600Z,271.30
2022-12-02T15:09:39.482Z,249.27
2022-12-02T15:12:06.693Z,278.08
2022-12-02T15:14:33.529Z,271.55
2022-12-02T15:17:00.419Z,286.40
2022-12-02T15:19:27.219Z,343.27
2022-12-02T15:21:53.964Z,314.48
2022-12-02T15:24:20.760Z,338.60
2022-12-02T15:26:52.289Z,338.33
2022-12-02T15:29:22.065Z,307.00
2022-12-02T15:31:49.020Z,416.98
2022-12-02T15:34:15.821Z,343.88
2022-12-02T15:36:42.686Z,272.90
2022-12-02T15:39:09.728Z,248.45
2022-12-02T15:41:37.507Z,232.75
2022-12-02T15:44:04.907Z,225.70
2022-12-02T15:46:31.987Z,164.65
2022-12-02T15:49:00.830Z,230.55
2022-12-02T15:51:28.685Z,209.50
2022-12-02T15:53:55.503Z,205.82
2022-12-02T15:56:22.467Z,251.60
2022-12-02T15:58:50.205Z,231.02
2022-12-02T16:01:18.217Z,261.15
2022-12-02T16:03:46.233Z,223.23
2022-12-02T16:06:13.014Z,230.93
2022-12-02T16:08:39.876Z,247.98
2022-12-02T16:11:06.839Z,297.40
2022-12-02T16:13:33.733Z,394.17
2022-12-02T16:16:00.614Z,264.77
2022-12-02T16:18:28.508Z,502.85
2022-12-02T16:20:57.404Z,513.08
2022-12-02T16:23:24.163Z,644.47
2022-12-02T16:25:51.995Z,474.03
2022-12-02T16:28:18.923Z,485.27
2022-12-02T16:30:46.194Z,517.67
2022-12-02T16:33:13.015Z,328.92
2022-12-02T16:35:42.878Z,203.73
2022-12-02T16:38:11.718Z,297.25
2022-12-02T16:40:38.426Z,535.47
2022-12-02T16:43:05.235Z,310.50
2022-12-02T16:45:32.087Z,669.77
2022-12-02T16:47:58.980Z,939.80
2022-12-02T16:50:25.852Z,281.43
2022-12-02T16:52:52.669Z,256.83
2022-12-02T16:55:20.515Z,317.42
2022-12-02T16:57:47.560Z,202.02
2022-12-02T17:00:14.870Z,202.80
2022-12-02T17:02:42.939Z,326.57
2022-12-02T17:05:10.457Z,266.95
2022-12-02T17:07:37.435Z,163.70
2022-12-02T17:10:05.078Z,228.73
2022-12-02T17:12:33.874Z,98.47
2022-12-02T17:15:01.142Z,155.87
2022-12-02T17:17:45.531Z,245.40
2022-12-02T17:20:14.118Z,71.82
2022-12-02T17:22:41.682Z,162.13
2022-12-02T17:25:09.863Z,161.15
2022-12-02T17:27:37.668Z,279.13
2022-12-02T17:30:05.211Z,161.63
2022-12-02T17:32:33.044Z,178.70
2022-12-02T17:34:59.768Z,166.40
2022-12-02T17:37:26.612Z,215.68
2022-12-02T17:39:53.326Z,396.55
2022-12-02T17:42:20.243Z,345.00
2022-12-02T17:44:47.031Z,195.02
2022-12-02T17:47:13.891Z,171.27
2022-12-02T17:49:41.659Z,205.38
2022-12-02T17:52:23.556Z,199.15
2022-12-02T17:54:50.695Z,221.88
2022-12-02T17:57:18.839Z,224.07
2022-12-02T17:59:45.510Z,236.85
2022-12-02T18:02:12.513Z,230.10
2022-12-02T18:04:44.424Z,243.55
2022-12-02T18:07:11.822Z,232.55
2022-12-02T18:09:38.991Z,243.53
2022-12-02T18:12:06.930Z,241.07
2022-12-02T18:14:34.120Z,217.15
2022-12-02T18:17:01.023Z,207.93
2022-12-02T18:19:27.944Z,211.38
2022-12-02T18:21:54.771Z,254.48
2022-12-02T18:24:21.638Z,232.25
2022-12-02T18:26:48.386Z,232.63
2022-12-02T18:29:15.226Z,318.38
2022-12-02T18:31:42.067Z,467.58
2022-12-02T18:34:08.777Z,279.10
2022-12-02T18:36:35.481Z,268.58
2022-12-02T18:39:02.232Z,235.97
2022-12-02T18:41:29.064Z,329.05
2022-12-02T18:43:56.815Z,220.88
2022-12-02T18:46:24.745Z,246.45
2022-12-02T18:48:51.691Z,224.20
2022-12-02T18:51:18.668Z,250.48
2022-12-02T18:53:45.507Z,250.25
2022-12-02T18:56:19.017Z,280.38
2022-12-02T18:58:50.041Z,276.10
2022-12-02T19:01:16.867Z,278.07
2022-12-02T19:03:43.981Z,296.85
2022-12-02T19:06:10.835Z,327.65
2022-12-02T19:08:37.857Z,364.52
2022-12-02T19:11:04.738Z,343.08
2022-12-02T19:13:31.564Z,240.98
2022-12-02T19:15:58.503Z,212.03
2022-12-02T19:18:25.413Z,218.20
2022-12-02T19:20:52.189Z,245.35
2022-12-02T19:23:18.952Z,254.40
2022-12-02T19:25:50.014Z,156.37
2022-12-02T19:28:19.372Z,276.93
2022-12-02T19:30:46.099Z,81.93
2022-12-02T19:33:13.467Z,104.83
2022-12-02T19:35:40.184Z,82.80
2022-12-02T19:38:13.330Z,94.68
2022-12-02T19:40:45.111Z,141.10
2022-12-02T19:43:13.475Z,160.48
2022-12-02T19:45:40.386Z,154.73
2022-12-02T19:48:07.231Z,180.40
2022-12-02T19:50:34.217Z,310.80
2022-12-02T19:53:01.484Z,239.75
2022-12-02T19:55:28.303Z,189.73
2022-12-02T19:57:55.111Z,340.77
2022-12-02T20:00:22.096Z,224.98
2022-12-02T20:02:49.048Z,221.07
2022-12-02T20:05:21.101Z,246.73
2022-12-02T20:07:48.960Z,232.50
2022-12-02T20:10:17.283Z,366.48
2022-12-02T20:12:44.056Z,308.85
2022-12-02T20:15:11.607Z,224.80
2022-12-02T20:17:38.678Z,280.63
2022-12-02T20:20:07.677Z,926.95
2022-12-02T20:22:34.658Z,185.50
2022-12-02T20:25:02.431Z,577.25
2022-12-02T20:27:29.175Z,457.15
2022-12-02T20:29:55.983Z,186.82
2022-12-02T20:32:22.742Z,278.65
2022-12-02T20:34:49.727Z,224.63
2022-12-02T20:37:16.534Z,123.30
2022-12-02T20:39:43.520Z,103.05
2022-12-02T20:42:10.707Z,115.80
2022-12-02T20:44:37.513Z,95.95
2022-12-02T20:47:04.483Z,84.03
2022-12-02T20:49:31.280Z,88.30
2022-12-02T20:51:58.069Z,121.57
2022-12-02T20:54:27.029Z,144.40
2022-12-02T20:56:53.867Z,91.35
2022-12-02T20:59:20.562Z,107.68
2022-12-02T21:01:47.499Z,99.18
2022-12-02T21:04:14.405Z,99.18
2022-12-02T21:06:41.254Z,108.93
2022-12-02T21:09:08.030Z,119.00
2022-12-02T21:11:34.850Z,113.27
2022-12-02T21:14:01.691Z,118.72
2022-12-02T21:16:28.541Z,119.75
2022-12-02T21:18:55.333Z,136.40
2022-12-02T21:21:22.150Z,144.55
2022-12-02T21:23:48.962Z,129.85
2022-12-02T21:26:15.807Z,129.50
2022-12-02T21:28:42.575Z,125.63
2022-12-02T21:31:09.383Z,140.90
2022-12-02T21:33:36.306Z,164.98
2022-12-02T21:36:03.187Z,164.02
2022-12-02T21:38:30.790Z,148.75
2022-12-02T21:40:57.538Z,161.90
2022-12-02T21:43:24.266Z,80.00
2022-12-02T21:45:51.016Z,115.70
2022-12-02T21:48:17.852Z,163.77
2022-12-02T21:50:44.720Z,155.40
2022-12-02T21:53:11.410Z,179.47
2022-12-02T21:55:38.171Z,163.10
2022-12-02T21:58:05.132Z,174.05
2022-12-02T22:00:33.134Z,197.60
2022-12-02T22:02:59.998Z,219.18
2022-12-02T22:05:26.720Z,155.38
2022-12-02T22:07:53.718Z,131.50
2022-12-02T22:10:23.486Z,157.15
2022-12-02T22:12:52.315Z,148.88
2022-12-02T22:15:21.823Z,178.30
2022-12-02T22:17:48.813Z,237.43
2022-12-02T22:20:18.087Z,195.00
2022-12-02T22:22:45.172Z,189.90
2022-12-02T22:25:11.925Z,206.68
2022-12-02T22:27:38.763Z,189.23
2022-12-02T22:30:06.981Z,215.05
2022-12-02T22:32:35.113Z,206.50
2022-12-02T22:35:03.339Z,208.23
2022-12-02T22:37:30.089Z,202.98
2022-12-02T22:39:56.927Z,231.23
2022-12-02T22:42:23.977Z,248.50
2022-12-02T22:44:51.206Z,246.93
2022-12-02T22:47:19.374Z,231.52
2022-12-02T22:49:47.222Z,254.30
2022-12-02T22:52:14.066Z,231.82
2022-12-02T22:54:41.001Z,215.07
2022-12-02T22:57:07.807Z,207.55
2022-12-02T22:59:34.665Z,214.15
2022-12-02T23:02:01.495Z,174.70
2022-12-02T23:04:28.265Z,183.50
2022-12-02T23:06:54.968Z,199.55
2022-12-02T23:09:22.910Z,230.25
2022-12-02T23:11:49.753Z,217.73
2022-12-02T23:14:16.477Z,244.85
2022-12-02T23:16:43.299Z,245.63
2022-12-02T23:19:10.036Z,122.70
2022-12-02T23:21:36.807Z,138.98
2022-12-02T23:24:03.782Z,126.18
2022-12-02T23:26:30.531Z,125.68
2022-12-02T23:28:57.236Z,141.02
2022-12-02T23:31:25.080Z,131.98
2022-12-02T23:33:53.953Z,136.45
2022-12-02T23:36:20.838Z,150.10
2022-12-02T23:38:47.638Z,135.40
2022-12-02T23:41:14.488Z,131.83
2022-12-02T23:43:42.252Z,180.75
2022-12-02T23:46:09.063Z,227.98
2022-12-02T23:48:35.927Z,248.13
2022-12-02T23:51:02.699Z,217.07
2022-12-02T23:53:29.405Z,212.57
2022-12-02T23:55:56.174Z,228.35
2022-12-02T23:58:22.996Z,227.63
